sensor_id;sensor_type;location;lat;lon;timestamp;temperature;humidity
7516;DHT22;3799;47.184;8.538;2023-05-07T00:01:07;14.90;99.90
7516;DHT22;3799;47.184;8.538;2023-05-07T00:03:35;14.70;99.90
7516;DHT22;3799;47.184;8.538;2023-05-07T00:06:04;14.70;99.90
7516;DHT22;3799;47.184;8.538;2023-05-07T00:08:31;14.50;99.90
7516;DHT22;3799;47.184;8.538;2023-05-07T00:10:58;14.50;99.90
7516;DHT22;3799;47.184;8.538;2023-05-07T00:13:29;14.50;99.90
7516;DHT22;3799;47.184;8.538;2023-05-07T00:16:03;14.50;99.90
7516;DHT22;3799;47.184;8.538;2023-05-07T00:18:30;14.40;99.90
7516;DHT22;3799;47.184;8.538;2023-05-07T00:20:57;14.60;99.90
7516;DHT22;3799;47.184;8.538;2023-05-07T00:23:24;14.50;99.90
7516;DHT22;3799;47.184;8.538;2023-05-07T00:25:52;14.50;99.90
7516;DHT22;3799;47.184;8.538;2023-05-07T00:28:19;14.50;99.90
7516;DHT22;3799;47.184;8.538;2023-05-07T00:30:47;14.50;99.90
7516;DHT22;3799;47.184;8.538;2023-05-07T00:33:14;14.50;99.90
7516;DHT22;3799;47.184;8.538;2023-05-07T00:35:42;14.70;99.90
7516;DHT22;3799;47.184;8.538;2023-05-07T00:38:10;14.50;99.90
7516;DHT22;3799;47.184;8.538;2023-05-07T00:40:37;14.50;99.90
7516;DHT22;3799;47.184;8.538;2023-05-07T00:43:04;14.40;99.90
7516;DHT22;3799;47.184;8.538;2023-05-07T00:45:32;14.10;99.90
7516;DHT22;3799;47.184;8.538;2023-05-07T00:48:00;14.00;99.90
7516;DHT22;3799;47.184;8.538;2023-05-07T00:50:28;14.10;99.90
7516;DHT22;3799;47.184;8.538;2023-05-07T00:52:56;14.40;99.90
7516;DHT22;3799;47.184;8.538;2023-05-07T00:55:25;14.10;99.90
7516;DHT22;3799;47.184;8.538;2023-05-07T00:57:53;14.10;99.90
7516;DHT22;3799;47.184;8.538;2023-05-07T01:00:20;13.90;99.90
7516;DHT22;3799;47.184;8.538;2023-05-07T01:02:48;14.20;99.90
7516;DHT22;3799;47.184;8.538;2023-05-07T01:05:17;14.10;99.90
7516;DHT22;3799;47.184;8.538;2023-05-07T01:07:46;13.80;99.90
7516;DHT22;3799;47.184;8.538;2023-05-07T01:10:15;14.00;99.90
7516;DHT22;3799;47.184;8.538;2023-05-07T01:12:43;13.80;99.90
7516;DHT22;3799;47.184;8.538;2023-05-07T01:15:11;14.10;99.90
7516;DHT22;3799;47.184;8.538;2023-05-07T01:17:40;13.80;99.90
7516;DHT22;3799;47.184;8.538;2023-05-07T01:20:09;13.70;99.90
7516;DHT22;3799;47.184;8.538;2023-05-07T01:22:38;14.00;99.90
7516;DHT22;3799;47.184;8.538;2023-05-07T01:25:06;13.90;99.90
7516;DHT22;3799;47.184;8.538;2023-05-07T01:27:36;14.10;99.90
7516;DHT22;3799;47.184;8.538;2023-05-07T01:30:04;14.30;99.90
7516;DHT22;3799;47.184;8.538;2023-05-07T01:32:59;13.90;99.90
7516;DHT22;3799;47.184;8.538;2023-05-07T01:35:29;13.80;99.90
7516;DHT22;3799;47.184;8.538;2023-05-07T01:37:57;14.20;99.90
7516;DHT22;3799;47.184;8.538;2023-05-07T01:40:25;14.10;99.90
7516;DHT22;3799;47.184;8.538;2023-05-07T01:42:54;14.10;99.90
7516;DHT22;3799;47.184;8.538;2023-05-07T01:45:22;13.90;99.90
7516;DHT22;3799;47.184;8.538;2023-05-07T01:47:49;14.20;99.90
7516;DHT22;3799;47.184;8.538;2023-05-07T01:50:18;14.00;99.90
7516;DHT22;3799;47.184;8.538;2023-05-07T01:52:47;14.30;99.90
7516;DHT22;3799;47.184;8.538;2023-05-07T01:55:14;13.90;99.90
7516;DHT22;3799;47.184;8.538;2023-05-07T01:57:41;13.90;99.90
7516;DHT22;3799;47.184;8.538;2023-05-07T02:00:08;13.90;99.90
7516;DHT22;3799;47.184;8.538;2023-05-07T02:02:37;14.00;99.90
7516;DHT22;3799;47.184;8.538;2023-05-07T02:05:05;13.80;99.90
7516;DHT22;3799;47.184;8.538;2023-05-07T02:07:33;13.90;99.90
7516;DHT22;3799;47.184;8.538;2023-05-07T02:10:00;14.00;99.90
7516;DHT22;3799;47.184;8.538;2023-05-07T02:12:27;13.90;99.90
7516;DHT22;3799;47.184;8.538;2023-05-07T02:14:54;13.70;99.90
7516;DHT22;3799;47.184;8.538;2023-05-07T02:17:22;13.70;99.90
7516;DHT22;3799;47.184;8.538;2023-05-07T02:19:49;13.70;99.90
7516;DHT22;3799;47.184;8.538;2023-05-07T02:22:17;13.60;99.90
7516;DHT22;3799;47.184;8.538;2023-05-07T02:24:44;13.50;99.90
7516;DHT22;3799;47.184;8.538;2023-05-07T02:27:11;13.60;99.90
7516;DHT22;3799;47.184;8.538;2023-05-07T02:29:38;13.60;99.90
7516;DHT22;3799;47.184;8.538;2023-05-07T02:32:06;13.40;99.90
7516;DHT22;3799;47.184;8.538;2023-05-07T02:34:34;13.20;99.90
7516;DHT22;3799;47.184;8.538;2023-05-07T02:37:01;13.50;99.90
7516;DHT22;3799;47.184;8.538;2023-05-07T02:39:29;13.60;99.90
7516;DHT22;3799;47.184;8.538;2023-05-07T02:41:56;13.40;99.90
7516;DHT22;3799;47.184;8.538;2023-05-07T02:44:23;13.30;99.90
7516;DHT22;3799;47.184;8.538;2023-05-07T02:46:50;13.20;99.90
7516;DHT22;3799;47.184;8.538;2023-05-07T02:49:18;13.50;99.90
7516;DHT22;3799;47.184;8.538;2023-05-07T02:51:45;13.40;99.90
7516;DHT22;3799;47.184;8.538;2023-05-07T02:54:12;13.40;99.90
7516;DHT22;3799;47.184;8.538;2023-05-07T02:56:39;13.40;99.90
7516;DHT22;3799;47.184;8.538;2023-05-07T02:59:07;13.40;99.90
7516;DHT22;3799;47.184;8.538;2023-05-07T03:01:34;13.40;99.90
7516;DHT22;3799;47.184;8.538;2023-05-07T03:04:02;13.30;99.90
7516;DHT22;3799;47.184;8.538;2023-05-07T03:06:29;13.30;99.90
7516;DHT22;3799;47.184;8.538;2023-05-07T03:08:59;13.20;99.90
7516;DHT22;3799;47.184;8.538;2023-05-07T03:11:26;13.10;99.90
7516;DHT22;3799;47.184;8.538;2023-05-07T03:13:53;13.20;99.90
7516;DHT22;3799;47.184;8.538;2023-05-07T03:16:20;13.20;99.90
7516;DHT22;3799;47.184;8.538;2023-05-07T03:18:48;13.20;99.90
7516;DHT22;3799;47.184;8.538;2023-05-07T03:21:16;13.20;99.90
7516;DHT22;3799;47.184;8.538;2023-05-07T03:23:43;13.10;99.90
7516;DHT22;3799;47.184;8.538;2023-05-07T03:26:10;13.30;99.90
7516;DHT22;3799;47.184;8.538;2023-05-07T03:28:38;12.90;99.90
7516;DHT22;3799;47.184;8.538;2023-05-07T03:31:06;13.30;99.90
7516;DHT22;3799;47.184;8.538;2023-05-07T03:33:34;13.00;99.90
7516;DHT22;3799;47.184;8.538;2023-05-07T03:36:02;13.20;99.90
7516;DHT22;3799;47.184;8.538;2023-05-07T03:38:29;13.30;99.90
7516;DHT22;3799;47.184;8.538;2023-05-07T03:40:57;13.10;99.90
7516;DHT22;3799;47.184;8.538;2023-05-07T03:43:27;12.90;99.90
7516;DHT22;3799;47.184;8.538;2023-05-07T03:45:54;12.90;99.90
7516;DHT22;3799;47.184;8.538;2023-05-07T03:48:21;13.00;99.90
7516;DHT22;3799;47.184;8.538;2023-05-07T03:50:49;13.00;99.90
7516;DHT22;3799;47.184;8.538;2023-05-07T03:53:16;12.90;99.90
7516;DHT22;3799;47.184;8.538;2023-05-07T03:55:43;12.80;99.90
7516;DHT22;3799;47.184;8.538;2023-05-07T03:58:11;12.70;99.90
7516;DHT22;3799;47.184;8.538;2023-05-07T04:00:38;12.70;99.90
7516;DHT22;3799;47.184;8.538;2023-05-07T04:03:07;13.00;99.90
7516;DHT22;3799;47.184;8.538;2023-05-07T04:05:35;12.60;99.90
7516;DHT22;3799;47.184;8.538;2023-05-07T04:08:02;12.50;99.90
7516;DHT22;3799;47.184;8.538;2023-05-07T04:10:29;12.70;99.90
7516;DHT22;3799;47.184;8.538;2023-05-07T04:12:57;12.50;99.90
7516;DHT22;3799;47.184;8.538;2023-05-07T04:15:25;12.70;99.90
7516;DHT22;3799;47.184;8.538;2023-05-07T04:17:54;12.40;99.90
7516;DHT22;3799;47.184;8.538;2023-05-07T04:20:22;12.50;99.90
7516;DHT22;3799;47.184;8.538;2023-05-07T04:22:49;12.40;99.90
7516;DHT22;3799;47.184;8.538;2023-05-07T04:25:16;12.50;99.90
7516;DHT22;3799;47.184;8.538;2023-05-07T04:27:44;12.60;99.90
7516;DHT22;3799;47.184;8.538;2023-05-07T04:30:12;12.50;99.90
7516;DHT22;3799;47.184;8.538;2023-05-07T04:32:40;12.60;99.90
7516;DHT22;3799;47.184;8.538;2023-05-07T04:35:15;12.30;99.90
7516;DHT22;3799;47.184;8.538;2023-05-07T04:37:42;12.50;99.90
7516;DHT22;3799;47.184;8.538;2023-05-07T04:40:10;12.60;99.90
7516;DHT22;3799;47.184;8.538;2023-05-07T04:42:38;12.50;99.90
7516;DHT22;3799;47.184;8.538;2023-05-07T04:45:05;12.80;99.90
7516;DHT22;3799;47.184;8.538;2023-05-07T04:47:33;12.70;99.90
7516;DHT22;3799;47.184;8.538;2023-05-07T04:50:00;12.70;99.90
7516;DHT22;3799;47.184;8.538;2023-05-07T04:52:27;13.00;99.90
7516;DHT22;3799;47.184;8.538;2023-05-07T04:54:54;12.90;99.90
7516;DHT22;3799;47.184;8.538;2023-05-07T04:57:22;13.00;99.90
7516;DHT22;3799;47.184;8.538;2023-05-07T04:59:53;13.00;99.90
7516;DHT22;3799;47.184;8.538;2023-05-07T05:05:07;13.20;99.90
7516;DHT22;3799;47.184;8.538;2023-05-07T05:08:00;13.20;99.90
7516;DHT22;3799;47.184;8.538;2023-05-07T05:10:57;13.30;99.90
7516;DHT22;3799;47.184;8.538;2023-05-07T05:13:59;13.20;99.90
7516;DHT22;3799;47.184;8.538;2023-05-07T05:16:47;13.50;99.90
7516;DHT22;3799;47.184;8.538;2023-05-07T05:19:34;13.50;99.90
7516;DHT22;3799;47.184;8.538;2023-05-07T05:22:22;13.60;99.90
7516;DHT22;3799;47.184;8.538;2023-05-07T05:25:09;13.50;99.90
7516;DHT22;3799;47.184;8.538;2023-05-07T05:27:56;13.60;99.90
7516;DHT22;3799;47.184;8.538;2023-05-07T05:30:44;13.90;99.90
7516;DHT22;3799;47.184;8.538;2023-05-07T05:33:31;13.70;99.90
7516;DHT22;3799;47.184;8.538;2023-05-07T05:36:18;13.80;99.90
7516;DHT22;3799;47.184;8.538;2023-05-07T05:39:05;13.80;99.90
7516;DHT22;3799;47.184;8.538;2023-05-07T05:41:53;14.30;99.90
7516;DHT22;3799;47.184;8.538;2023-05-07T05:44:40;13.80;99.90
7516;DHT22;3799;47.184;8.538;2023-05-07T05:47:27;14.20;99.90
7516;DHT22;3799;47.184;8.538;2023-05-07T05:50:14;14.40;99.90
7516;DHT22;3799;47.184;8.538;2023-05-07T05:53:02;14.40;99.90
7516;DHT22;3799;47.184;8.538;2023-05-07T05:55:49;14.30;99.90
7516;DHT22;3799;47.184;8.538;2023-05-07T05:58:37;14.20;99.90
7516;DHT22;3799;47.184;8.538;2023-05-07T06:01:24;14.60;99.90
7516;DHT22;3799;47.184;8.538;2023-05-07T06:04:11;14.50;99.90
7516;DHT22;3799;47.184;8.538;2023-05-07T06:06:58;14.90;99.90
7516;DHT22;3799;47.184;8.538;2023-05-07T06:09:46;14.90;99.90
7516;DHT22;3799;47.184;8.538;2023-05-07T06:12:33;14.90;99.90
7516;DHT22;3799;47.184;8.538;2023-05-07T06:15:21;15.00;99.90
7516;DHT22;3799;47.184;8.538;2023-05-07T06:18:08;14.90;99.90
7516;DHT22;3799;47.184;8.538;2023-05-07T06:20:59;15.10;99.90
7516;DHT22;3799;47.184;8.538;2023-05-07T06:23:46;15.00;99.90
7516;DHT22;3799;47.184;8.538;2023-05-07T06:26:33;15.10;99.90
7516;DHT22;3799;47.184;8.538;2023-05-07T06:29:20;15.20;99.90
7516;DHT22;3799;47.184;8.538;2023-05-07T06:32:12;15.20;99.90
7516;DHT22;3799;47.184;8.538;2023-05-07T06:35:00;15.40;99.90
7516;DHT22;3799;47.184;8.538;2023-05-07T06:37:47;15.30;99.90
7516;DHT22;3799;47.184;8.538;2023-05-07T06:40:34;15.40;99.90
7516;DHT22;3799;47.184;8.538;2023-05-07T06:43:21;15.60;99.90
7516;DHT22;3799;47.184;8.538;2023-05-07T06:46:09;15.60;99.90
7516;DHT22;3799;47.184;8.538;2023-05-07T06:48:56;15.90;99.90
7516;DHT22;3799;47.184;8.538;2023-05-07T06:51:44;15.70;99.90
7516;DHT22;3799;47.184;8.538;2023-05-07T06:54:31;15.80;99.90
7516;DHT22;3799;47.184;8.538;2023-05-07T06:57:18;15.80;99.90
7516;DHT22;3799;47.184;8.538;2023-05-07T07:00:06;16.40;99.90
7516;DHT22;3799;47.184;8.538;2023-05-07T07:02:56;16.10;99.90
7516;DHT22;3799;47.184;8.538;2023-05-07T07:05:44;16.30;99.90
7516;DHT22;3799;47.184;8.538;2023-05-07T07:08:31;16.40;99.90
7516;DHT22;3799;47.184;8.538;2023-05-07T07:11:18;16.60;99.90
7516;DHT22;3799;47.184;8.538;2023-05-07T07:14:06;16.60;99.90
7516;DHT22;3799;47.184;8.538;2023-05-07T07:16:53;16.70;99.90
7516;DHT22;3799;47.184;8.538;2023-05-07T07:19:40;16.60;99.90
7516;DHT22;3799;47.184;8.538;2023-05-07T07:22:28;16.60;99.90
7516;DHT22;3799;47.184;8.538;2023-05-07T07:25:15;16.70;99.90
7516;DHT22;3799;47.184;8.538;2023-05-07T07:28:03;16.80;99.90
7516;DHT22;3799;47.184;8.538;2023-05-07T07:30:50;17.00;99.90
7516;DHT22;3799;47.184;8.538;2023-05-07T07:33:38;16.90;99.90
7516;DHT22;3799;47.184;8.538;2023-05-07T07:36:25;17.10;99.90
7516;DHT22;3799;47.184;8.538;2023-05-07T07:39:31;17.00;99.90
7516;DHT22;3799;47.184;8.538;2023-05-07T07:42:19;17.10;99.90
7516;DHT22;3799;47.184;8.538;2023-05-07T07:45:07;17.20;99.90
7516;DHT22;3799;47.184;8.538;2023-05-07T07:47:54;17.30;99.90
7516;DHT22;3799;47.184;8.538;2023-05-07T07:50:42;17.30;99.90
7516;DHT22;3799;47.184;8.538;2023-05-07T07:53:31;17.30;99.90
7516;DHT22;3799;47.184;8.538;2023-05-07T07:56:19;17.50;99.90
7516;DHT22;3799;47.184;8.538;2023-05-07T07:59:06;17.80;99.90
7516;DHT22;3799;47.184;8.538;2023-05-07T08:01:54;17.70;99.90
7516;DHT22;3799;47.184;8.538;2023-05-07T08:04:44;17.50;99.90
7516;DHT22;3799;47.184;8.538;2023-05-07T08:07:31;17.70;99.90
7516;DHT22;3799;47.184;8.538;2023-05-07T08:10:19;17.60;99.90
7516;DHT22;3799;47.184;8.538;2023-05-07T08:13:08;17.70;99.90
7516;DHT22;3799;47.184;8.538;2023-05-07T08:15:56;17.70;99.90
7516;DHT22;3799;47.184;8.538;2023-05-07T08:18:44;17.50;99.90
7516;DHT22;3799;47.184;8.538;2023-05-07T08:21:31;17.80;99.90
7516;DHT22;3799;47.184;8.538;2023-05-07T08:24:20;17.90;99.90
7516;DHT22;3799;47.184;8.538;2023-05-07T08:27:08;17.80;99.90
7516;DHT22;3799;47.184;8.538;2023-05-07T08:29:55;18.10;99.90
7516;DHT22;3799;47.184;8.538;2023-05-07T08:32:42;18.10;99.90
7516;DHT22;3799;47.184;8.538;2023-05-07T08:35:30;18.50;99.90
7516;DHT22;3799;47.184;8.538;2023-05-07T08:38:17;18.90;99.90
7516;DHT22;3799;47.184;8.538;2023-05-07T08:41:05;18.80;99.90
7516;DHT22;3799;47.184;8.538;2023-05-07T08:43:58;19.50;99.90
7516;DHT22;3799;47.184;8.538;2023-05-07T08:46:47;19.80;99.90
7516;DHT22;3799;47.184;8.538;2023-05-07T08:49:37;20.00;99.90
7516;DHT22;3799;47.184;8.538;2023-05-07T08:55:01;20.40;99.90
7516;DHT22;3799;47.184;8.538;2023-05-07T08:57:32;20.70;99.90
7516;DHT22;3799;47.184;8.538;2023-05-07T08:59:59;20.70;99.90
7516;DHT22;3799;47.184;8.538;2023-05-07T09:02:27;20.80;99.90
7516;DHT22;3799;47.184;8.538;2023-05-07T09:04:54;21.10;99.90
7516;DHT22;3799;47.184;8.538;2023-05-07T09:07:22;21.20;99.90
7516;DHT22;3799;47.184;8.538;2023-05-07T09:09:49;21.30;99.90
7516;DHT22;3799;47.184;8.538;2023-05-07T09:12:18;21.40;99.80
7516;DHT22;3799;47.184;8.538;2023-05-07T09:14:45;21.40;98.10
7516;DHT22;3799;47.184;8.538;2023-05-07T09:17:15;21.40;97.00
7516;DHT22;3799;47.184;8.538;2023-05-07T09:19:44;21.50;96.80
7516;DHT22;3799;47.184;8.538;2023-05-07T09:22:12;21.50;95.90
7516;DHT22;3799;47.184;8.538;2023-05-07T09:24:40;21.50;96.00
7516;DHT22;3799;47.184;8.538;2023-05-07T09:27:07;21.50;95.00
7516;DHT22;3799;47.184;8.538;2023-05-07T09:29:37;21.50;95.10
7516;DHT22;3799;47.184;8.538;2023-05-07T09:32:08;21.40;94.90
7516;DHT22;3799;47.184;8.538;2023-05-07T09:34:36;21.60;94.50
7516;DHT22;3799;47.184;8.538;2023-05-07T09:37:05;21.70;94.10
7516;DHT22;3799;47.184;8.538;2023-05-07T09:39:40;21.60;93.50
7516;DHT22;3799;47.184;8.538;2023-05-07T09:42:08;21.70;93.80
7516;DHT22;3799;47.184;8.538;2023-05-07T09:44:35;21.80;93.70
7516;DHT22;3799;47.184;8.538;2023-05-07T09:47:08;21.90;93.10
7516;DHT22;3799;47.184;8.538;2023-05-07T09:49:39;21.90;93.00
7516;DHT22;3799;47.184;8.538;2023-05-07T09:52:09;22.00;92.70
7516;DHT22;3799;47.184;8.538;2023-05-07T09:54:37;22.10;92.50
7516;DHT22;3799;47.184;8.538;2023-05-07T09:57:05;22.00;92.60
7516;DHT22;3799;47.184;8.538;2023-05-07T09:59:34;22.10;92.40
7516;DHT22;3799;47.184;8.538;2023-05-07T10:02:03;22.00;92.20
7516;DHT22;3799;47.184;8.538;2023-05-07T10:04:31;22.00;92.30
7516;DHT22;3799;47.184;8.538;2023-05-07T10:07:00;22.10;92.00
7516;DHT22;3799;47.184;8.538;2023-05-07T10:09:28;22.20;91.50
7516;DHT22;3799;47.184;8.538;2023-05-07T10:11:56;22.30;91.60
7516;DHT22;3799;47.184;8.538;2023-05-07T10:14:24;22.40;91.50
7516;DHT22;3799;47.184;8.538;2023-05-07T10:16:52;22.50;90.90
7516;DHT22;3799;47.184;8.538;2023-05-07T10:19:20;22.50;90.80
7516;DHT22;3799;47.184;8.538;2023-05-07T10:22:03;22.60;90.50
7516;DHT22;3799;47.184;8.538;2023-05-07T10:24:36;22.80;90.60
7516;DHT22;3799;47.184;8.538;2023-05-07T10:27:12;23.00;89.50
7516;DHT22;3799;47.184;8.538;2023-05-07T10:30:21;23.40;87.20
7516;DHT22;3799;47.184;8.538;2023-05-07T10:32:46;23.70;84.30
7516;DHT22;3799;47.184;8.538;2023-05-07T10:35:21;24.00;83.30
7516;DHT22;3799;47.184;8.538;2023-05-07T10:37:50;24.20;81.90
7516;DHT22;3799;47.184;8.538;2023-05-07T10:40:18;24.30;78.50
7516;DHT22;3799;47.184;8.538;2023-05-07T10:43:00;24.30;80.10
7516;DHT22;3799;47.184;8.538;2023-05-07T10:45:29;24.40;78.30
7516;DHT22;3799;47.184;8.538;2023-05-07T10:48:09;24.30;75.60
7516;DHT22;3799;47.184;8.538;2023-05-07T10:51:18;24.20;69.70
7516;DHT22;3799;47.184;8.538;2023-05-07T10:53:47;24.10;70.30
7516;DHT22;3799;47.184;8.538;2023-05-07T10:58:46;23.90;71.40
7516;DHT22;3799;47.184;8.538;2023-05-07T11:01:13;23.90;72.50
7516;DHT22;3799;47.184;8.538;2023-05-07T11:04:16;23.80;73.20
7516;DHT22;3799;47.184;8.538;2023-05-07T11:15:14;23.20;73.50
7516;DHT22;3799;47.184;8.538;2023-05-07T11:17:54;23.00;73.80
7516;DHT22;3799;47.184;8.538;2023-05-07T11:20:48;22.70;72.60
7516;DHT22;3799;47.184;8.538;2023-05-07T11:26:05;22.40;72.10
7516;DHT22;3799;47.184;8.538;2023-05-07T11:28:41;22.40;73.00
7516;DHT22;3799;47.184;8.538;2023-05-07T11:31:10;22.50;71.60
7516;DHT22;3799;47.184;8.538;2023-05-07T11:33:38;22.70;72.00
7516;DHT22;3799;47.184;8.538;2023-05-07T11:36:07;22.80;72.10
7516;DHT22;3799;47.184;8.538;2023-05-07T11:38:36;23.10;70.70
7516;DHT22;3799;47.184;8.538;2023-05-07T11:41:04;23.30;69.20
7516;DHT22;3799;47.184;8.538;2023-05-07T11:43:34;23.40;67.90
7516;DHT22;3799;47.184;8.538;2023-05-07T11:46:08;23.40;67.80
7516;DHT22;3799;47.184;8.538;2023-05-07T11:48:37;23.40;68.00
7516;DHT22;3799;47.184;8.538;2023-05-07T11:51:06;23.40;67.70
7516;DHT22;3799;47.184;8.538;2023-05-07T11:53:40;23.30;66.20
7516;DHT22;3799;47.184;8.538;2023-05-07T11:56:09;23.40;67.20
7516;DHT22;3799;47.184;8.538;2023-05-07T11:58:38;23.50;67.50
7516;DHT22;3799;47.184;8.538;2023-05-07T12:01:08;23.60;67.10
7516;DHT22;3799;47.184;8.538;2023-05-07T12:03:36;23.70;66.00
7516;DHT22;3799;47.184;8.538;2023-05-07T12:06:08;23.80;67.10
7516;DHT22;3799;47.184;8.538;2023-05-07T12:08:37;24.00;66.60
7516;DHT22;3799;47.184;8.538;2023-05-07T12:11:22;24.30;65.70
7516;DHT22;3799;47.184;8.538;2023-05-07T12:13:50;24.70;65.40
7516;DHT22;3799;47.184;8.538;2023-05-07T12:16:17;25.10;60.90
7516;DHT22;3799;47.184;8.538;2023-05-07T12:18:46;25.30;60.00
7516;DHT22;3799;47.184;8.538;2023-05-07T12:21:14;25.60;59.60
7516;DHT22;3799;47.184;8.538;2023-05-07T12:23:42;25.80;58.70
7516;DHT22;3799;47.184;8.538;2023-05-07T12:26:10;26.00;58.80
7516;DHT22;3799;47.184;8.538;2023-05-07T12:28:38;26.10;58.50
7516;DHT22;3799;47.184;8.538;2023-05-07T12:31:07;26.20;57.60
7516;DHT22;3799;47.184;8.538;2023-05-07T12:33:34;26.50;56.50
7516;DHT22;3799;47.184;8.538;2023-05-07T12:36:08;26.80;56.00
7516;DHT22;3799;47.184;8.538;2023-05-07T12:38:39;27.00;55.10
7516;DHT22;3799;47.184;8.538;2023-05-07T12:41:09;27.10;54.70
7516;DHT22;3799;47.184;8.538;2023-05-07T12:43:36;27.40;54.10
7516;DHT22;3799;47.184;8.538;2023-05-07T12:46:06;27.50;54.30
7516;DHT22;3799;47.184;8.538;2023-05-07T12:48:36;27.70;53.30
7516;DHT22;3799;47.184;8.538;2023-05-07T12:51:05;27.70;52.50
7516;DHT22;3799;47.184;8.538;2023-05-07T12:53:33;27.60;53.10
7516;DHT22;3799;47.184;8.538;2023-05-07T12:56:00;27.60;53.80
7516;DHT22;3799;47.184;8.538;2023-05-07T12:58:30;27.60;53.80
7516;DHT22;3799;47.184;8.538;2023-05-07T13:01:05;27.70;53.90
7516;DHT22;3799;47.184;8.538;2023-05-07T13:03:34;27.90;53.20
7516;DHT22;3799;47.184;8.538;2023-05-07T13:06:04;28.10;53.10
7516;DHT22;3799;47.184;8.538;2023-05-07T13:08:40;28.10;53.20
7516;DHT22;3799;47.184;8.538;2023-05-07T13:11:09;27.90;53.10
7516;DHT22;3799;47.184;8.538;2023-05-07T13:13:38;27.70;54.10
7516;DHT22;3799;47.184;8.538;2023-05-07T13:16:09;27.40;54.00
7516;DHT22;3799;47.184;8.538;2023-05-07T13:18:37;27.10;54.00
7516;DHT22;3799;47.184;8.538;2023-05-07T13:21:05;26.80;54.40
7516;DHT22;3799;47.184;8.538;2023-05-07T13:23:32;26.30;54.90
7516;DHT22;3799;47.184;8.538;2023-05-07T13:25:59;25.90;55.50
7516;DHT22;3799;47.184;8.538;2023-05-07T13:28:34;25.60;55.80
7516;DHT22;3799;47.184;8.538;2023-05-07T13:31:01;25.20;56.40
7516;DHT22;3799;47.184;8.538;2023-05-07T13:33:29;25.00;57.20
7516;DHT22;3799;47.184;8.538;2023-05-07T13:35:57;24.80;57.80
7516;DHT22;3799;47.184;8.538;2023-05-07T13:38:24;24.50;58.30
7516;DHT22;3799;47.184;8.538;2023-05-07T13:40:51;24.20;58.80
7516;DHT22;3799;47.184;8.538;2023-05-07T13:43:19;24.00;59.30
7516;DHT22;3799;47.184;8.538;2023-05-07T13:45:47;23.80;60.70
7516;DHT22;3799;47.184;8.538;2023-05-07T13:48:14;23.70;61.40
7516;DHT22;3799;47.184;8.538;2023-05-07T13:50:42;23.60;62.00
7516;DHT22;3799;47.184;8.538;2023-05-07T13:53:09;23.50;63.10
7516;DHT22;3799;47.184;8.538;2023-05-07T13:55:36;23.40;63.90
7516;DHT22;3799;47.184;8.538;2023-05-07T13:58:03;23.30;66.50
7516;DHT22;3799;47.184;8.538;2023-05-07T14:00:33;23.10;68.70
7516;DHT22;3799;47.184;8.538;2023-05-07T14:03:00;22.90;70.50
7516;DHT22;3799;47.184;8.538;2023-05-07T14:05:27;22.80;71.50
7516;DHT22;3799;47.184;8.538;2023-05-07T14:07:57;22.70;72.80
7516;DHT22;3799;47.184;8.538;2023-05-07T14:10:24;22.60;73.40
7516;DHT22;3799;47.184;8.538;2023-05-07T14:12:52;22.40;75.00
7516;DHT22;3799;47.184;8.538;2023-05-07T14:15:20;22.20;77.40
7516;DHT22;3799;47.184;8.538;2023-05-07T14:17:47;22.00;79.10
7516;DHT22;3799;47.184;8.538;2023-05-07T14:20:14;21.80;81.80
7516;DHT22;3799;47.184;8.538;2023-05-07T14:22:42;21.70;81.60
7516;DHT22;3799;47.184;8.538;2023-05-07T14:25:09;21.50;80.90
7516;DHT22;3799;47.184;8.538;2023-05-07T14:27:37;21.40;81.70
7516;DHT22;3799;47.184;8.538;2023-05-07T14:30:05;21.30;82.80
7516;DHT22;3799;47.184;8.538;2023-05-07T14:32:33;21.20;83.20
7516;DHT22;3799;47.184;8.538;2023-05-07T14:35:00;20.90;83.80
7516;DHT22;3799;47.184;8.538;2023-05-07T14:37:28;21.00;85.50
7516;DHT22;3799;47.184;8.538;2023-05-07T14:39:55;20.90;85.80
7516;DHT22;3799;47.184;8.538;2023-05-07T14:42:23;20.80;88.10
7516;DHT22;3799;47.184;8.538;2023-05-07T14:44:50;20.90;88.90
7516;DHT22;3799;47.184;8.538;2023-05-07T14:47:17;20.70;89.00
7516;DHT22;3799;47.184;8.538;2023-05-07T14:49:46;20.90;89.90
7516;DHT22;3799;47.184;8.538;2023-05-07T14:52:14;20.60;90.50
7516;DHT22;3799;47.184;8.538;2023-05-07T14:54:41;20.50;91.80
7516;DHT22;3799;47.184;8.538;2023-05-07T14:57:09;20.60;93.10
7516;DHT22;3799;47.184;8.538;2023-05-07T14:59:38;20.20;94.00
7516;DHT22;3799;47.184;8.538;2023-05-07T15:02:06;20.10;96.10
7516;DHT22;3799;47.184;8.538;2023-05-07T15:04:35;19.80;97.60
7516;DHT22;3799;47.184;8.538;2023-05-07T15:07:03;20.10;98.60
7516;DHT22;3799;47.184;8.538;2023-05-07T15:09:44;19.90;98.60
7516;DHT22;3799;47.184;8.538;2023-05-07T15:12:13;20.20;99.40
7516;DHT22;3799;47.184;8.538;2023-05-07T15:14:41;20.00;99.90
7516;DHT22;3799;47.184;8.538;2023-05-07T15:17:08;19.90;99.90
7516;DHT22;3799;47.184;8.538;2023-05-07T15:19:36;19.80;99.90
7516;DHT22;3799;47.184;8.538;2023-05-07T15:22:03;19.70;99.90
7516;DHT22;3799;47.184;8.538;2023-05-07T15:24:30;19.70;99.90
7516;DHT22;3799;47.184;8.538;2023-05-07T15:26:58;19.70;99.90
7516;DHT22;3799;47.184;8.538;2023-05-07T15:29:26;19.80;99.90
7516;DHT22;3799;47.184;8.538;2023-05-07T15:31:54;19.70;99.90
7516;DHT22;3799;47.184;8.538;2023-05-07T15:34:22;19.80;99.90
7516;DHT22;3799;47.184;8.538;2023-05-07T15:36:50;19.60;99.90
7516;DHT22;3799;47.184;8.538;2023-05-07T15:39:18;19.50;99.90
7516;DHT22;3799;47.184;8.538;2023-05-07T15:41:45;19.60;99.90
7516;DHT22;3799;47.184;8.538;2023-05-07T15:44:13;19.50;99.90
7516;DHT22;3799;47.184;8.538;2023-05-07T15:46:40;19.10;99.90
7516;DHT22;3799;47.184;8.538;2023-05-07T15:49:08;19.30;99.90
7516;DHT22;3799;47.184;8.538;2023-05-07T15:51:36;19.20;99.90
7516;DHT22;3799;47.184;8.538;2023-05-07T15:54:04;18.90;99.90
7516;DHT22;3799;47.184;8.538;2023-05-07T15:56:31;18.90;99.90
7516;DHT22;3799;47.184;8.538;2023-05-07T15:58:59;19.00;99.90
7516;DHT22;3799;47.184;8.538;2023-05-07T16:01:28;19.10;99.90
7516;DHT22;3799;47.184;8.538;2023-05-07T16:03:56;19.00;99.90
7516;DHT22;3799;47.184;8.538;2023-05-07T16:06:24;18.70;99.90
7516;DHT22;3799;47.184;8.538;2023-05-07T16:08:51;18.90;99.90
7516;DHT22;3799;47.184;8.538;2023-05-07T16:11:18;18.80;99.90
7516;DHT22;3799;47.184;8.538;2023-05-07T16:13:46;18.60;99.90
7516;DHT22;3799;47.184;8.538;2023-05-07T16:16:13;18.60;99.90
7516;DHT22;3799;47.184;8.538;2023-05-07T16:18:40;18.70;99.90
7516;DHT22;3799;47.184;8.538;2023-05-07T16:21:08;18.30;99.90
7516;DHT22;3799;47.184;8.538;2023-05-07T16:23:35;18.20;99.90
7516;DHT22;3799;47.184;8.538;2023-05-07T16:26:03;18.60;99.90
7516;DHT22;3799;47.184;8.538;2023-05-07T16:28:31;18.20;99.90
7516;DHT22;3799;47.184;8.538;2023-05-07T16:30:59;18.40;99.90
7516;DHT22;3799;47.184;8.538;2023-05-07T16:33:26;18.20;99.90
7516;DHT22;3799;47.184;8.538;2023-05-07T16:35:54;18.20;99.90
7516;DHT22;3799;47.184;8.538;2023-05-07T16:38:21;18.10;99.90
7516;DHT22;3799;47.184;8.538;2023-05-07T16:40:48;18.10;99.90
7516;DHT22;3799;47.184;8.538;2023-05-07T16:43:17;18.30;99.90
7516;DHT22;3799;47.184;8.538;2023-05-07T16:45:44;18.00;99.90
7516;DHT22;3799;47.184;8.538;2023-05-07T16:48:12;17.70;99.90
7516;DHT22;3799;47.184;8.538;2023-05-07T16:50:39;17.80;99.90
7516;DHT22;3799;47.184;8.538;2023-05-07T16:53:08;17.40;99.90
7516;DHT22;3799;47.184;8.538;2023-05-07T16:55:41;17.40;99.90
7516;DHT22;3799;47.184;8.538;2023-05-07T16:58:10;16.80;99.90